Time;durP1;ratioP1;P1;durP2;ratioP2;P2;SDS_P1;SDS_P2;PMS_P1;PMS_P2;Temp;Humidity;BMP_temperature;BMP_pressure;BME280_temperature;BME280_humidity;BME280_pressure;Samples;Min_cycle;Max_cycle;Signal;HPM_P1;HPM_P2
2021/06/20 00:00:50;;;;;;;9.18;8.48;;;;;;;27.47;47.47;95121.47;4979831;28;20644;-90
2021/06/20 00:03:17;;;;;;;8.90;8.10;;;;;;;27.46;47.03;95124.41;4991585;28;20886;-88
2021/06/20 00:05:50;;;;;;;9.57;8.82;;;;;;;27.47;47.17;95115.38;4991701;28;20574;-89
2021/06/20 00:08:16;;;;;;;9.60;8.75;;;;;;;27.54;47.18;95110.47;4991197;28;20595;-89
2021/06/20 00:10:43;;;;;;;9.55;8.85;;;;;;;27.50;47.12;95112.16;4990816;28;20200;-91
2021/06/20 00:13:13;;;;;;;9.38;8.73;;;;;;;27.50;47.36;95112.16;4990560;28;20214;-88
2021/06/20 00:15:40;;;;;;;9.52;8.73;;;;;;;27.50;47.05;95115.59;4990916;28;20750;-89
2021/06/20 00:18:16;;;;;;;9.13;8.43;;;;;;;27.48;47.30;95106.38;4990498;28;20302;-90
2021/06/20 00:20:44;;;;;;;8.98;8.30;;;;;;;27.48;47.23;95112.44;4990561;28;20285;-89
2021/06/20 00:23:12;;;;;;;9.32;8.50;;;;;;;27.46;47.23;95100.59;4990113;28;20219;-90
2021/06/20 00:25:41;;;;;;;9.38;8.55;;;;;;;27.33;47.64;95101.34;4990513;28;20262;-87
2021/06/20 00:28:10;;;;;;;8.85;8.15;;;;;;;27.26;48.46;95091.19;4990461;28;20253;-87
2021/06/20 00:30:50;;;;;;;8.57;7.90;;;;;;;27.28;48.22;95101.47;4990413;28;20200;-87
2021/06/20 00:33:19;;;;;;;9.60;8.75;;;;;;;27.27;48.17;95100.69;4990283;28;20207;-86
2021/06/20 00:35:45;;;;;;;10.30;9.40;;;;;;;27.24;47.83;95097.84;4990225;28;20200;-87
2021/06/20 00:38:27;;;;;;;9.18;8.38;;;;;;;27.20;48.29;95092.34;4990587;28;20290;-87
2021/06/20 00:40:54;;;;;;;10.43;9.52;;;;;;;27.10;48.59;95082.78;4987674;28;20746;-86
2021/06/20 00:43:25;;;;;;;9.35;8.50;;;;;;;27.14;48.33;95085.59;4990202;28;20571;-87
2021/06/20 00:45:54;;;;;;;9.15;8.40;;;;;;;27.18;48.02;95078.66;4990484;28;20215;-87
2021/06/20 00:48:35;;;;;;;9.57;8.68;;;;;;;27.09;49.18;95065.34;4978194;28;20306;-87
2021/06/20 00:51:02;;;;;;;9.77;8.80;;;;;;;27.06;49.03;95065.94;4990116;28;20207;-87
2021/06/20 00:53:28;;;;;;;9.15;8.35;;;;;;;27.00;50.13;95072.38;4989861;28;20230;-87
2021/06/20 00:55:58;;;;;;;8.82;8.02;;;;;;;27.07;49.44;95087.84;4980457;28;20236;-87
2021/06/20 00:58:25;;;;;;;9.07;8.30;;;;;;;27.13;49.20;95091.97;4970476;28;20294;-87
2021/06/20 01:00:53;;;;;;;9.60;8.75;;;;;;;27.16;49.29;95091.38;4978778;28;20663;-87
2021/06/20 01:03:20;;;;;;;9.48;8.77;;;;;;;27.11;49.27;95091.47;4990698;28;20302;-86
2021/06/20 01:05:49;;;;;;;11.90;8.80;;;;;;;27.07;49.52;95099.22;4990052;28;20234;-87
2021/06/20 01:08:20;;;;;;;9.35;8.55;;;;;;;27.09;49.81;95102.34;4990288;28;20203;-87
2021/06/20 01:10:47;;;;;;;9.38;8.40;;;;;;;27.08;50.01;95097.34;4990520;28;20204;-86
2021/06/20 01:13:19;;;;;;;9.52;8.40;;;;;;;26.99;50.32;95093.81;4989824;28;20207;-87
2021/06/20 01:16:01;;;;;;;9.15;8.35;;;;;;;26.83;50.70;95091.41;4992221;28;20199;-87
2021/06/20 01:18:32;;;;;;;9.57;8.77;;;;;;;26.53;51.42;95088.50;4991653;28;20192;-86
2021/06/20 01:20:58;;;;;;;9.98;8.98;;;;;;;26.58;51.16;95094.47;5008012;28;20292;-87
2021/06/20 01:23:26;;;;;;;9.20;8.50;;;;;;;26.65;51.22;95092.25;5008140;28;20230;-87
2021/06/20 01:25:58;;;;;;;8.68;8.00;;;;;;;26.63;50.97;95086.47;5009755;28;20283;-86
2021/06/20 01:28:27;;;;;;;9.35;8.55;;;;;;;26.62;50.81;95084.09;5009678;28;20238;-86
2021/06/20 01:30:58;;;;;;;9.05;8.35;;;;;;;26.63;51.29;95083.81;5010348;28;20263;-86
2021/06/20 01:33:28;;;;;;;9.05;8.32;;;;;;;26.67;50.85;95095.38;5009720;28;20262;-86
2021/06/20 01:35:56;;;;;;;9.15;8.43;;;;;;;26.70;51.15;95094.81;5002956;28;20591;-87
2021/06/20 01:38:26;;;;;;;9.10;8.30;;;;;;;26.52;52.15;95076.38;4991542;28;20606;-86
2021/06/20 01:40:53;;;;;;;8.88;8.18;;;;;;;26.44;52.45;95075.94;4990254;28;20218;-86
2021/06/20 01:43:20;;;;;;;10.20;9.30;;;;;;;26.45;51.93;95077.50;4989596;28;20253;-87
2021/06/20 01:45:49;;;;;;;9.90;9.00;;;;;;;26.44;52.50;95081.22;4989446;28;20250;-87
2021/06/20 01:48:15;;;;;;;9.15;8.30;;;;;;;26.47;51.81;95071.94;4989449;28;20211;-87
2021/06/20 01:50:45;;;;;;;9.57;8.85;;;;;;;26.43;52.09;95071.72;4989311;28;20203;-87
2021/06/20 01:53:14;;;;;;;10.13;9.23;;;;;;;26.42;52.33;95075.44;4989352;28;20286;-87
2021/06/20 01:55:57;;;;;;;9.20;8.40;;;;;;;26.34;52.68;95078.75;4981068;28;20700;-86
2021/06/20 01:58:24;;;;;;;10.35;9.13;;;;;;;26.38;52.59;95073.66;4969956;28;20271;-87
2021/06/20 02:00:56;;;;;;;9.98;9.18;;;;;;;26.44;52.88;95085.72;4978403;28;20200;-87
2021/06/20 02:03:27;;;;;;;9.68;8.98;;;;;;;26.42;52.84;95085.22;4989002;28;20207;-86
2021/06/20 02:05:58;;;;;;;9.65;8.85;;;;;;;26.35;53.19;95082.97;4989230;28;20734;-87
2021/06/20 02:08:25;;;;;;;9.63;8.70;;;;;;;26.39;52.59;95097.13;4989029;28;20203;-87
2021/06/20 02:10:57;;;;;;;9.15;8.48;;;;;;;26.42;52.92;95099.22;4988759;28;20282;-87
2021/06/20 02:13:27;;;;;;;9.45;8.63;;;;;;;26.42;52.86;95091.28;4989056;28;20203;-87
2021/06/20 02:15:54;;;;;;;9.65;8.85;;;;;;;26.29;53.03;95083.28;4989091;28;20199;-87
2021/06/20 02:18:21;;;;;;;10.77;9.88;;;;;;;26.27;52.55;95078.28;4989139;28;20642;-86
2021/06/20 02:20:48;;;;;;;10.02;9.20;;;;;;;26.18;52.93;95085.28;4988916;28;20195;-86
2021/06/20 02:23:15;;;;;;;9.82;8.82;;;;;;;26.17;52.77;95089.00;4988655;28;20210;-87
2021/06/20 02:25:41;;;;;;;9.55;8.77;;;;;;;26.14;52.83;95090.38;4990615;28;20242;-86
2021/06/20 02:28:09;;;;;;;9.05;8.35;;;;;;;26.17;53.04;95093.50;4992502;28;20209;-86
2021/06/20 02:30:36;;;;;;;12.95;8.93;;;;;;;26.20;52.89;95091.06;4992461;28;20211;-87
2021/06/20 02:33:03;;;;;;;9.43;8.70;;;;;;;25.96;54.07;95079.81;4992566;28;20207;-86
2021/06/20 02:35:29;;;;;;;9.73;8.85;;;;;;;25.65;54.03;95074.16;4992388;28;20737;-87
2021/06/20 02:37:56;;;;;;;9.48;8.82;;;;;;;25.58;54.58;95069.22;4992697;28;20220;-86
2021/06/20 02:40:23;;;;;;;9.65;8.85;;;;;;;25.66;54.59;95065.19;4992853;28;20210;-87
2021/06/20 02:42:50;;;;;;;9.55;8.75;;;;;;;25.75;54.46;95066.13;4992315;28;20203;-88
2021/06/20 02:45:22;;;;;;;9.88;9.10;;;;;;;25.76;54.61;95057.16;4991946;28;20223;-87
2021/06/20 02:47:53;;;;;;;10.45;9.52;;;;;;;25.64;55.14;95065.47;4992376;28;20203;-87
2021/06/20 02:50:20;;;;;;;10.73;9.80;;;;;;;25.53;55.25;95065.84;4992422;28;20226;-86
2021/06/20 02:52:47;;;;;;;10.23;9.23;;;;;;;25.60;54.98;95076.81;4991829;28;20694;-87
2021/06/20 02:55:15;;;;;;;9.70;8.90;;;;;;;25.67;55.17;95075.44;4988052;28;20220;-87
2021/06/20 02:57:43;;;;;;;10.15;9.35;;;;;;;25.74;54.88;95073.25;4972409;28;20256;-86
2021/06/20 03:00:15;;;;;;;10.15;9.27;;;;;;;25.55;55.36;95069.00;4975481;28;20228;-87
2021/06/20 03:02:45;;;;;;;9.40;8.70;;;;;;;25.62;55.47;95078.13;4991565;28;20191;-87
2021/06/20 03:05:15;;;;;;;10.15;9.18;;;;;;;25.55;55.55;95077.69;4991696;28;20231;-86
2021/06/20 03:07:41;;;;;;;10.43;9.40;;;;;;;25.50;55.69;95084.88;4991888;28;20200;-87
2021/06/20 03:10:11;;;;;;;10.35;9.32;;;;;;;25.39;56.39;95086.84;4991396;28;20298;-88
2021/06/20 03:12:40;;;;;;;10.07;9.27;;;;;;;25.43;55.82;95087.84;4991305;28;20200;-88
2021/06/20 03:15:08;;;;;;;9.45;8.75;;;;;;;25.51;56.01;95104.91;4991472;28;20223;-86
2021/06/20 03:17:39;;;;;;;9.68;8.98;;;;;;;25.57;55.75;95090.59;4991899;28;20199;-86
2021/06/20 03:20:08;;;;;;;10.05;9.18;;;;;;;25.45;56.11;95090.97;4991777;28;20207;-87
2021/06/20 03:22:35;;;;;;;9.80;9.00;;;;;;;25.51;55.72;95100.41;4991556;28;20204;-86
2021/06/20 03:25:20;;;;;;;;;;;;;;;;;;;;;
2021/06/20 03:27:50;;;;;;;9.70;8.80;;;;;;;25.43;56.26;95106.28;4991723;28;20210;-87
2021/06/20 03:30:33;;;;;;;9.80;8.82;;;;;;;25.43;55.79;95104.44;4991297;28;20207;-87
2021/06/20 03:33:00;;;;;;;11.25;10.15;;;;;;;25.39;56.15;95121.91;4991186;28;20208;-87
2021/06/20 03:35:29;;;;;;;10.48;9.40;;;;;;;25.44;55.75;95115.78;4991231;28;20306;-87
2021/06/20 03:37:56;;;;;;;10.15;9.45;;;;;;;25.45;55.67;95126.03;4991132;28;20203;-87
2021/06/20 03:40:28;;;;;;;9.80;8.98;;;;;;;25.53;55.24;95122.00;4991257;28;20210;-86
2021/06/20 03:42:55;;;;;;;10.23;9.27;;;;;;;25.59;55.00;95125.38;4991206;28;20254;-87
2021/06/20 03:45:25;;;;;;;10.57;9.65;;;;;;;25.57;55.21;95128.28;4979724;28;20243;-89
2021/06/20 03:47:53;;;;;;;9.63;8.93;;;;;;;25.67;54.59;95130.81;4991653;28;20192;-89
2021/06/20 03:50:20;;;;;;;9.57;8.88;;;;;;;25.74;54.74;95141.03;4990777;28;20262;-90
2021/06/20 03:52:50;;;;;;;9.77;8.85;;;;;;;25.77;54.88;95127.28;4987000;28;20204;-89
2021/06/20 03:55:19;;;;;;;9.30;8.60;;;;;;;25.75;55.20;95119.66;4980301;28;20228;-89
2021/06/20 03:57:46;;;;;;;9.60;8.90;;;;;;;25.69;55.16;95099.69;4976452;28;20224;-87
2021/06/20 04:00:14;;;;;;;9.48;8.75;;;;;;;25.72;55.15;95106.25;4979906;28;20675;-87
2021/06/20 04:02:41;;;;;;;8.85;8.25;;;;;;;25.44;56.36;95118.41;4997131;28;20238;-87
2021/06/20 04:05:09;;;;;;;9.65;8.85;;;;;;;25.51;56.15;95136.53;4997013;28;20220;-89
2021/06/20 04:07:51;;;;;;;9.63;8.82;;;;;;;25.53;55.85;95137.81;4997359;28;20234;-89
2021/06/20 04:10:18;;;;;;;10.40;9.50;;;;;;;25.54;55.96;95152.56;4997141;28;20235;-89
2021/06/20 04:12:44;;;;;;;10.55;9.55;;;;;;;25.39;56.90;95152.75;4995605;28;20203;-88
2021/06/20 04:15:12;;;;;;;9.27;8.57;;;;;;;25.48;56.21;95153.69;4995832;28;20223;-88
2021/06/20 04:17:38;;;;;;;10.45;9.55;;;;;;;25.54;55.95;95149.16;4996837;28;20199;-90
2021/06/20 04:20:07;;;;;;;10.15;9.13;;;;;;;25.56;56.35;95155.72;4996726;28;20203;-88
2021/06/20 04:22:34;;;;;;;9.50;8.70;;;;;;;25.61;56.07;95152.22;4996631;28;20210;-89
2021/06/20 04:25:02;;;;;;;10.10;9.15;;;;;;;25.65;56.03;95161.97;4995662;28;20234;-88
2021/06/20 04:27:28;;;;;;;9.65;8.75;;;;;;;25.66;56.91;95163.53;4994974;28;20206;-90
2021/06/20 04:29:55;;;;;;;10.65;8.98;;;;;;;25.72;56.02;95161.63;4996605;28;20207;-87
2021/06/20 04:33:08;;;;;;;10.45;9.50;;;;;;;25.90;57.39;95165.38;5000752;28;20199;-87
2021/06/20 04:35:35;;;;;;;9.75;8.48;;;;;;;26.18;56.93;95182.94;5013245;28;20199;-88
2021/06/20 04:38:14;;;;;;;9.30;8.40;;;;;;;26.34;56.20;95183.56;5012051;28;20749;-85
2021/06/20 04:40:43;;;;;;;9.40;8.55;;;;;;;26.44;56.15;95192.13;5011692;28;20207;-87
2021/06/20 04:43:12;;;;;;;10.80;8.88;;;;;;;26.36;57.11;95184.06;5005010;28;20211;-88
2021/06/20 04:45:39;;;;;;;9.35;8.45;;;;;;;26.47;56.26;95188.91;5001936;28;20219;-88
2021/06/20 04:48:05;;;;;;;9.38;8.65;;;;;;;26.58;55.75;95199.31;5008163;28;20206;-88
2021/06/20 04:50:32;;;;;;;10.43;8.98;;;;;;;26.66;56.14;95198.69;5002573;28;20264;-87
2021/06/20 04:52:58;;;;;;;8.65;8.05;;;;;;;26.68;55.05;95209.75;5002601;28;20214;-87
2021/06/20 04:55:25;;;;;;;10.05;8.73;;;;;;;26.63;54.64;95209.81;4986350;28;20222;-87
2021/06/20 04:57:54;;;;;;;9.88;8.82;;;;;;;26.48;54.88;95197.63;4974615;28;20208;-87
2021/06/20 05:00:21;;;;;;;9.68;8.70;;;;;;;26.39;55.11;95194.03;4977166;28;20263;-87
2021/06/20 05:02:48;;;;;;;10.27;9.30;;;;;;;26.32;55.59;95194.41;4973006;28;20204;-87
2021/06/20 05:05:14;;;;;;;11.57;9.73;;;;;;;26.38;55.16;95197.75;4973600;28;20238;-87
2021/06/20 05:07:41;;;;;;;9.88;8.98;;;;;;;26.40;55.28;95190.31;4974155;28;20258;-87
2021/06/20 05:10:09;;;;;;;9.82;8.82;;;;;;;26.37;55.37;95182.97;4972987;28;20212;-88
2021/06/20 05:12:36;;;;;;;10.77;9.23;;;;;;;26.46;55.04;95179.41;4972836;28;20674;-88
2021/06/20 05:15:06;;;;;;;10.70;9.25;;;;;;;26.57;54.82;95179.25;4972788;28;20224;-87
2021/06/20 05:17:33;;;;;;;9.93;8.93;;;;;;;26.59;54.52;95179.75;4973105;28;20205;-87
2021/06/20 05:19:59;;;;;;;13.00;8.93;;;;;;;26.68;54.31;95184.13;4976329;28;20614;-87
2021/06/20 05:22:26;;;;;;;9.90;8.60;;;;;;;26.73;54.48;95188.53;4992665;28;20567;-88
2021/06/20 05:24:52;;;;;;;9.63;8.35;;;;;;;26.72;54.13;95187.75;4992578;28;20230;-88
2021/06/20 05:27:19;;;;;;;9.23;8.13;;;;;;;26.72;54.03;95198.31;4992837;28;20226;-88
2021/06/20 05:29:45;;;;;;;11.50;8.35;;;;;;;26.81;53.54;95207.16;4993254;28;20212;-87
2021/06/20 05:32:13;;;;;;;8.68;7.78;;;;;;;26.86;53.28;95210.78;4994884;28;20207;-87
2021/06/20 05:34:40;;;;;;;9.55;8.10;;;;;;;26.74;53.54;95225.25;4992488;28;20227;-87
2021/06/20 05:37:06;;;;;;;10.82;8.10;;;;;;;26.76;53.63;95230.22;4992076;28;20199;-87
2021/06/20 05:39:33;;;;;;;12.93;8.02;;;;;;;26.82;53.16;95232.50;4991839;28;20230;-86
2021/06/20 05:41:59;;;;;;;9.20;7.40;;;;;;;26.80;53.26;95241.78;4991906;28;20290;-87
2021/06/20 05:44:26;;;;;;;13.07;8.02;;;;;;;26.74;52.80;95248.22;4991792;28;20218;-87
2021/06/20 05:46:52;;;;;;;8.90;7.72;;;;;;;26.87;52.90;95258.06;4991491;28;20228;-87
2021/06/20 05:49:20;;;;;;;12.27;7.60;;;;;;;26.94;52.73;95263.00;4991803;28;20297;-87
2021/06/20 05:51:47;;;;;;;10.88;7.85;;;;;;;27.08;52.61;95263.84;4991881;28;20200;-87
2021/06/20 05:54:13;;;;;;;12.55;7.85;;;;;;;27.13;52.40;95261.91;4991579;28;20249;-87
2021/06/20 05:56:40;;;;;;;11.07;7.38;;;;;;;27.17;52.20;95257.63;4975054;28;20238;-87
2021/06/20 05:59:09;;;;;;;15.68;7.78;;;;;;;27.14;52.02;95260.81;4972695;28;20210;-87
2021/06/20 06:01:36;;;;;;;12.50;7.65;;;;;;;27.17;51.93;95260.25;4975711;28;20239;-87
2021/06/20 06:04:02;;;;;;;14.90;7.10;;;;;;;27.20;51.81;95266.81;4975977;28;20220;-87
2021/06/20 06:06:30;;;;;;;15.50;7.95;;;;;;;27.20;51.17;95280.03;4975876;28;20231;-87
2021/06/20 06:08:57;;;;;;;14.43;8.02;;;;;;;27.10;51.27;95282.88;4975606;28;20210;-87
2021/06/20 06:11:24;;;;;;;14.57;7.25;;;;;;;27.06;51.77;95281.88;4975654;28;20258;-87
2021/06/20 06:13:50;;;;;;;12.43;6.82;;;;;;;26.94;51.30;95298.13;4975606;28;20231;-87
2021/06/20 06:16:17;;;;;;;12.88;7.38;;;;;;;26.95;51.76;95293.63;4975538;28;20574;-87
2021/06/20 06:18:43;;;;;;;14.85;6.80;;;;;;;26.84;51.40;95306.97;4974947;28;20200;-87
2021/06/20 06:21:11;;;;;;;11.40;7.10;;;;;;;26.75;51.31;95313.97;4987038;28;20210;-87
2021/06/20 06:23:45;;;;;;;16.00;7.13;;;;;;;26.68;51.93;95313.53;4994033;28;20719;-87
2021/06/20 06:26:14;;;;;;;13.75;7.78;;;;;;;26.63;51.86;95318.09;4994062;28;20640;-87
2021/06/20 06:28:43;;;;;;;13.88;6.95;;;;;;;26.62;51.86;95327.88;4993731;28;20298;-87
2021/06/20 06:31:16;;;;;;;12.45;6.93;;;;;;;26.61;51.98;95331.59;4993628;28;20585;-88
2021/06/20 06:33:42;;;;;;;14.15;6.90;;;;;;;26.61;51.95;95334.22;4994187;28;20215;-87
2021/06/20 06:36:13;;;;;;;15.15;7.10;;;;;;;26.57;51.99;95322.66;4993457;28;20203;-87
2021/06/20 06:38:44;;;;;;;10.60;7.10;;;;;;;26.56;52.31;95338.78;4994133;28;20218;-88
2021/06/20 06:41:12;;;;;;;14.02;7.82;;;;;;;26.55;52.50;95339.88;4993268;28;20204;-87
2021/06/20 06:43:38;;;;;;;12.13;7.00;;;;;;;26.52;52.35;95332.50;4993870;28;20219;-87
2021/06/20 06:46:09;;;;;;;16.40;8.18;;;;;;;26.53;52.39;95334.88;4993472;28;20226;-87
2021/06/20 06:48:35;;;;;;;16.50;9.30;;;;;;;26.57;52.86;95335.06;4993510;28;20214;-87
2021/06/20 06:51:02;;;;;;;18.30;7.95;;;;;;;26.43;52.95;95327.06;4992555;28;20234;-88
2021/06/20 06:53:29;;;;;;;14.57;6.90;;;;;;;26.38;53.12;95343.75;4987421;28;20218;-86
2021/06/20 06:55:57;;;;;;;15.27;6.95;;;;;;;26.37;53.17;95351.94;4979050;28;20220;-88
2021/06/20 06:58:24;;;;;;;14.15;6.93;;;;;;;26.41;52.99;95355.59;4974434;28;20291;-87
2021/06/20 07:00:51;;;;;;;12.05;7.15;;;;;;;26.39;53.32;95357.72;4983171;28;20659;-86
2021/06/20 07:03:18;;;;;;;17.80;7.28;;;;;;;26.46;52.99;95363.47;4992530;28;20203;-87
2021/06/20 07:05:44;;;;;;;16.50;7.50;;;;;;;26.37;53.67;95375.69;4993181;28;20238;-88
2021/06/20 07:08:11;;;;;;;14.75;7.30;;;;;;;26.42;53.67;95373.00;4993624;28;20204;-88
2021/06/20 07:10:38;;;;;;;14.05;7.22;;;;;;;26.47;53.44;95376.38;4992812;28;20205;-88
2021/06/20 07:13:05;;;;;;;15.25;7.18;;;;;;;26.41;53.21;95377.50;4993188;28;20203;-87
2021/06/20 07:15:37;;;;;;;11.75;7.22;;;;;;;26.40;53.79;95381.22;4993202;28;20234;-87
2021/06/20 07:18:04;;;;;;;18.13;7.40;;;;;;;26.37;53.90;95370.41;4994017;28;20199;-87
2021/06/20 07:20:31;;;;;;;14.95;10.15;;;;;;;26.31;54.06;95377.63;4993946;28;20226;-88
2021/06/20 07:22:57;;;;;;;14.02;9.05;;;;;;;26.37;54.13;95375.69;4993917;28;20587;-87
2021/06/20 07:25:24;;;;;;;16.52;7.18;;;;;;;26.40;53.89;95383.06;4991585;28;20220;-87
2021/06/20 07:27:51;;;;;;;12.57;7.32;;;;;;;26.38;54.02;95377.28;4974535;28;20579;-88
2021/06/20 07:30:21;;;;;;;11.57;7.78;;;;;;;26.41;54.56;95382.00;4973605;28;20200;-87
2021/06/20 07:32:49;;;;;;;15.82;7.82;;;;;;;26.44;54.08;95376.94;4973094;28;20200;-87
2021/06/20 07:35:16;;;;;;;15.85;7.55;;;;;;;26.51;54.00;95368.69;4973606;28;20612;-87
2021/06/20 07:37:42;;;;;;;13.77;7.93;;;;;;;26.57;54.19;95366.75;4974095;28;20291;-87
2021/06/20 07:40:11;;;;;;;14.60;7.95;;;;;;;26.63;54.26;95363.78;4973608;28;20208;-87
2021/06/20 07:42:38;;;;;;;13.98;8.00;;;;;;;26.63;53.95;95360.34;4974117;28;20206;-88
2021/06/20 07:45:06;;;;;;;9.93;7.35;;;;;;;26.61;54.35;95360.63;4985167;28;20227;-87
2021/06/20 07:47:36;;;;;;;16.30;7.03;;;;;;;26.47;54.64;95379.03;4992693;28;20675;-87
2021/06/20 07:50:04;;;;;;;13.95;7.20;;;;;;;26.44;55.30;95379.59;4993016;28;20203;-87
2021/06/20 07:52:31;;;;;;;18.20;7.20;;;;;;;26.41;54.72;95377.50;4992516;28;20199;-87
2021/06/20 07:54:57;;;;;;;10.73;6.53;;;;;;;26.60;54.31;95379.41;4993210;28;20245;-87
2021/06/20 07:57:24;;;;;;;18.70;7.38;;;;;;;26.73;54.10;95381.38;4992913;28;20237;-87
2021/06/20 07:59:51;;;;;;;15.23;8.32;;;;;;;26.79;53.90;95388.16;4993345;28;20195;-85
2021/06/20 08:02:20;;;;;;;12.40;7.38;;;;;;;26.78;53.30;95391.88;4993419;28;20207;-86
2021/06/20 08:04:48;;;;;;;14.77;6.85;;;;;;;26.78;53.55;95397.94;4993280;28;20219;-86
2021/06/20 08:07:16;;;;;;;12.88;7.05;;;;;;;26.74;54.84;95402.22;4993047;28;20223;-87
2021/06/20 08:09:43;;;;;;;19.10;7.22;;;;;;;26.80;53.93;95406.38;4993101;28;20208;-87
2021/06/20 08:12:11;;;;;;;16.92;6.82;;;;;;;26.94;53.82;95405.69;4992839;28;20210;-85
2021/06/20 08:14:38;;;;;;;13.15;6.90;;;;;;;27.02;53.43;95390.00;4992682;28;20227;-86
2021/06/20 08:17:05;;;;;;;12.15;6.43;;;;;;;27.12;53.22;95381.97;4993131;28;20210;-86
2021/06/20 08:19:34;;;;;;;18.35;6.82;;;;;;;27.17;52.79;95379.22;4992420;28;20211;-86
2021/06/20 08:22:02;;;;;;;14.52;6.70;;;;;;;27.22;52.22;95380.22;4992469;28;20203;-86
2021/06/20 08:24:31;;;;;;;19.77;6.55;;;;;;;27.43;51.99;95378.84;4992511;28;20239;-86
2021/06/20 08:26:58;;;;;;;17.15;6.60;;;;;;;27.61;51.76;95375.44;4993070;28;20285;-87
2021/06/20 08:29:24;;;;;;;15.25;6.07;;;;;;;27.89;51.65;95376.31;4993172;28;20262;-88
2021/06/20 08:31:59;;;;;;;15.25;6.15;;;;;;;28.09;50.81;95373.31;4992283;28;20287;-86
2021/06/20 08:34:26;;;;;;;11.27;6.13;;;;;;;28.06;51.20;95365.94;4992354;28;20222;-86
2021/06/20 08:36:53;;;;;;;16.25;5.70;;;;;;;28.12;49.85;95377.19;4991585;28;20208;-85
2021/06/20 08:39:23;;;;;;;15.70;5.70;;;;;;;28.24;47.83;95377.56;4991685;28;20211;-86
2021/06/20 08:41:50;;;;;;;18.23;5.82;;;;;;;28.42;47.80;95384.63;4992301;28;20747;-87
2021/06/20 08:44:21;;;;;;;21.60;5.65;;;;;;;28.55;47.20;95393.66;4985543;28;20232;-88
2021/06/20 08:46:50;;;;;;;15.70;5.50;;;;;;;28.75;47.36;95397.75;4986707;28;20231;-86
2021/06/20 08:49:26;;;;;;;18.05;5.70;;;;;;;28.65;47.75;95400.63;4990184;28;20203;-86
2021/06/20 08:51:59;;;;;;;15.70;5.40;;;;;;;28.57;46.89;95401.31;4974444;28;20195;-86
2021/06/20 08:54:27;;;;;;;18.80;10.27;;;;;;;28.64;46.94;95410.44;4992488;28;20613;-85
2021/06/20 08:56:56;;;;;;;16.17;5.53;;;;;;;28.69;46.38;95399.72;4991761;28;20288;-87
2021/06/20 08:59:26;;;;;;;16.50;5.10;;;;;;;28.87;45.90;95395.41;4992129;28;20219;-87
2021/06/20 09:02:10;;;;;;;19.90;5.25;;;;;;;28.92;45.54;95394.53;4986232;28;20203;-87
2021/06/20 09:04:38;;;;;;;17.88;5.68;;;;;;;29.08;45.64;95382.53;4971878;28;20617;-87
2021/06/20 09:07:06;;;;;;;12.40;5.13;;;;;;;29.11;46.23;95381.94;4978169;28;20220;-84
2021/06/20 09:09:35;;;;;;;15.07;5.38;;;;;;;29.09;46.31;95376.13;4982885;28;20290;-83
2021/06/20 09:12:09;;;;;;;18.33;5.47;;;;;;;29.10;46.44;95375.06;4985161;28;20207;-85
2021/06/20 09:14:44;;;;;;;17.30;5.95;;;;;;;29.07;47.21;95373.00;4983885;28;20219;-84
2021/06/20 09:17:11;;;;;;;15.43;5.38;;;;;;;29.01;46.66;95372.34;4984603;28;20217;-85
2021/06/20 09:19:38;;;;;;;17.35;5.55;;;;;;;28.82;46.29;95363.75;4984395;28;20204;-84
2021/06/20 09:22:09;;;;;;;12.85;5.25;;;;;;;28.81;46.94;95357.66;4984880;28;20222;-84
2021/06/20 09:24:40;;;;;;;15.35;4.80;;;;;;;28.80;46.66;95344.69;4984952;28;20224;-86
2021/06/20 09:27:07;;;;;;;14.98;5.72;;;;;;;28.82;46.88;95347.84;5005020;28;20229;-86
2021/06/20 09:29:35;;;;;;;18.77;5.75;;;;;;;28.89;45.61;95342.91;5005879;28;20207;-84
2021/06/20 09:32:05;;;;;;;13.52;5.45;;;;;;;29.02;46.01;95330.72;5004457;28;20206;-84
2021/06/20 09:34:41;;;;;;;18.73;5.57;;;;;;;29.07;45.75;95335.88;5007953;28;20223;-85
2021/06/20 09:37:08;;;;;;;21.05;5.45;;;;;;;29.14;45.15;95328.31;5010698;28;20202;-84
2021/06/20 09:39:34;;;;;;;18.45;5.70;;;;;;;29.18;45.26;95332.72;4997225;28;20227;-83
2021/06/20 09:42:04;;;;;;;16.80;6.25;;;;;;;29.18;45.24;95329.28;5009538;28;20503;-84
2021/06/20 09:44:49;;;;;;;17.85;6.22;;;;;;;29.28;44.65;95330.91;5003571;28;20222;-85
2021/06/20 09:47:17;;;;;;;17.33;5.43;;;;;;;29.27;44.56;95330.09;5006447;28;20246;-86
2021/06/20 09:49:45;;;;;;;13.02;5.45;;;;;;;29.20;44.22;95327.91;4995706;28;20196;-85
2021/06/20 09:52:15;;;;;;;16.63;5.38;;;;;;;29.29;44.05;95332.47;4997149;28;20667;-84
2021/06/20 09:54:53;;;;;;;16.48;6.18;;;;;;;29.44;44.19;95316.25;5007872;28;20246;-84
2021/06/20 09:57:21;;;;;;;15.55;5.32;;;;;;;29.63;43.66;95316.81;5010804;28;20230;-84
2021/06/20 09:59:56;;;;;;;18.05;5.22;;;;;;;29.61;42.20;95315.56;5010929;28;20218;-86
2021/06/20 10:02:26;;;;;;;16.02;5.88;;;;;;;29.58;42.85;95310.84;5008584;28;20194;-84
2021/06/20 10:04:53;;;;;;;17.60;5.47;;;;;;;29.51;43.73;95312.06;4993845;28;20223;-84
2021/06/20 10:07:20;;;;;;;15.55;5.30;;;;;;;29.53;43.76;95301.16;4991764;28;20232;-85
2021/06/20 10:09:47;;;;;;;14.05;6.13;;;;;;;29.57;43.09;95296.03;4991084;28;20277;-84
2021/06/20 10:12:13;;;;;;;13.35;5.05;;;;;;;29.73;43.35;95292.66;4991700;28;20204;-84
2021/06/20 10:14:45;;;;;;;17.70;5.25;;;;;;;29.92;42.70;95294.31;4991478;28;20224;-85
2021/06/20 10:17:15;;;;;;;15.70;5.43;;;;;;;29.98;41.76;95295.78;4991758;28;20203;-84
2021/06/20 10:19:42;;;;;;;17.40;4.93;;;;;;;29.81;41.19;95291.16;4992385;28;20192;-83
2021/06/20 10:22:10;;;;;;;15.27;4.75;;;;;;;29.76;42.34;95284.09;5007298;28;20200;-86
2021/06/20 10:24:45;;;;;;;16.63;5.15;;;;;;;29.70;42.54;95290.63;5009903;28;20219;-85
2021/06/20 10:27:16;;;;;;;13.18;4.88;;;;;;;29.78;42.20;95283.81;5009134;28;20218;-84
2021/06/20 10:29:54;;;;;;;17.45;5.20;;;;;;;30.00;42.56;95283.00;5010215;28;20279;-84
2021/06/20 10:32:22;;;;;;;15.82;4.95;;;;;;;30.12;41.80;95297.25;5009834;28;20206;-86
2021/06/20 10:34:54;;;;;;;18.15;5.40;;;;;;;30.12;41.45;95293.81;5010492;28;20404;-85
2021/06/20 10:37:22;;;;;;;16.20;5.13;;;;;;;29.94;41.39;95284.19;5005600;28;20298;-83
2021/06/20 10:39:50;;;;;;;15.88;5.20;;;;;;;30.07;42.16;95278.78;5016472;28;20202;-86
2021/06/20 10:42:16;;;;;;;20.27;5.78;;;;;;;30.21;42.80;95286.66;5011147;28;20687;-84
2021/06/20 10:44:47;;;;;;;18.15;4.90;;;;;;;30.42;43.01;95284.19;5005036;28;20219;-84
2021/06/20 10:47:26;;;;;;;16.15;5.22;;;;;;;30.66;41.91;95281.16;5000774;28;20231;-86
2021/06/20 10:49:55;;;;;;;14.73;5.13;;;;;;;30.71;40.90;95273.81;4999804;28;20231;-84
2021/06/20 10:52:22;;;;;;;19.20;8.00;;;;;;;30.63;41.40;95271.91;5000070;28;20234;-85
2021/06/20 10:54:52;;;;;;;15.63;6.28;;;;;;;30.51;40.82;95261.09;5001133;28;20232;-86
2021/06/20 10:57:26;;;;;;;19.70;6.35;;;;;;;30.50;41.36;95256.88;4999348;28;20781;-85
2021/06/20 10:59:59;;;;;;;16.15;5.20;;;;;;;30.43;40.63;95248.56;4999105;28;20203;-83
2021/06/20 11:02:32;;;;;;;15.27;5.40;;;;;;;30.37;41.15;95249.81;5000811;28;20211;-84
2021/06/20 11:04:59;;;;;;;16.73;5.63;;;;;;;30.31;41.79;95251.84;5000345;28;20318;-85
2021/06/20 11:07:27;;;;;;;17.30;5.30;;;;;;;30.21;42.46;95249.47;4998868;28;20700;-84
2021/06/20 11:09:54;;;;;;;19.10;6.55;;;;;;;30.24;42.59;95246.19;4980368;28;20209;-85
2021/06/20 11:12:20;;;;;;;15.73;5.20;;;;;;;30.31;42.05;95243.06;4979936;28;20238;-87
2021/06/20 11:14:49;;;;;;;21.08;5.57;;;;;;;30.59;41.73;95233.78;4980879;28;20228;-85
2021/06/20 11:17:17;;;;;;;14.57;4.97;;;;;;;30.78;42.22;95230.81;4981493;28;20247;-85
2021/06/20 11:19:44;;;;;;;14.15;5.20;;;;;;;30.80;41.21;95226.72;4985148;28;20200;-83
2021/06/20 11:22:13;;;;;;;19.90;5.18;;;;;;;30.71;40.09;95225.19;5001391;28;20238;-84
2021/06/20 11:24:42;;;;;;;17.20;5.35;;;;;;;30.60;40.36;95223.94;5001118;28;20255;-83
2021/06/20 11:27:10;;;;;;;19.52;5.88;;;;;;;30.67;40.92;95214.38;4997876;28;20219;-83
2021/06/20 11:29:45;;;;;;;17.02;5.68;;;;;;;30.91;40.81;95208.59;4998410;28;20210;-85
2021/06/20 11:32:17;;;;;;;18.65;5.78;;;;;;;31.11;40.59;95204.53;4997457;28;20223;-83
2021/06/20 11:34:46;;;;;;;15.55;5.57;;;;;;;31.12;40.42;95198.91;5000311;28;20249;-82
2021/06/20 11:37:20;;;;;;;19.13;6.10;;;;;;;31.15;40.05;95194.81;4998259;28;20199;-83